Las horas y fechas están en horario UTC
Sumar 1 hora en el horario de Invierno y 2 horas en el de Verano

Informes METAR cercanos

 

LEZL - Sevilla (civ/Mil, Spain
Distance from station: NNE 24km
Actualización: 28/02/2020 21:00
Despejado
Despejado
 Viento del OSO
Viento: OSO 13 km/h
Temperatura: 16°C
Rocío: 13°C
Humedad: 83%
Barómetro: 1018 hPa
Resumen: Despejado
Visibility: greater than 10 km
2020/02/28 20:00 LEZL 282000Z 24007KT CAVOK 16/13 Q1018 NOSIG
LEMO - Moron (sp-Usafb), Spain
Distance from station: E 38km
Actualización: 28/02/2020 21:00
Despejado
Despejado
 Viento del OSO
Viento: OSO 9 km/h
Temperatura: 14°C
Rocío: 7°C
Humedad: 63%
Barómetro: 1018 hPa
Resumen: Despejado
Visibility: greater than 10 km
2020/02/28 20:00 LEMO 282000Z 25005KT 220V280 CAVOK 14/07 Q1018 NOSIG
LEJR - Jerez (civ/Mil), Spain
Distance from station: S 53km
Actualización: 28/02/2020 21:00
Despejado
Despejado
 Viento del S
Viento: S 9 km/h
Temperatura: 14°C
Rocío: 10°C
Humedad: 77%
Barómetro: 1018 hPa
Resumen: Despejado
Visibility: greater than 10 km
2020/02/28 20:00 LEJR 282000Z 18005KT CAVOK 14/10 Q1018
 
LERT - Rota Naval Stati, Spain
Distance from station: SSO 71km
Actualización: 28/02/2020 21:00
Despejado
Despejado
 Viento del SSO
Viento: SSO 13 km/h
Temperatura: 15°C
Rocío: 15°C
Humedad: 100%
Barómetro: 1019 hPa
Resumen: Despejado
Visibility: greater than 10 km
2020/02/28 20:00 LERT 282000Z 20007KT CAVOK 15/15 Q1019 NOSIG
LEBA - Cordoba Airport, Spain
Distance from station: ENE 128km
Actualización: 28/02/2020 21:00
Despejado
Despejado
 Viento del SSO
Viento: SSO 7 km/h
Temperatura: 12°C
Rocío: 6°C
Humedad: 67%
Barómetro: 1018 hPa
Resumen: Despejado
Visibility: greater than 10 km
2020/02/28 20:00 LEBA 282000Z AUTO 20004KT CAVOK 12/06 Q1018
LXGB - Gibraltar (civ/M, Gibraltar
Distance from station: SSE 137km
Actualización: 28/02/2020 20:50
Muy nuboso
Muy nuboso
 Viento del NE
Viento: NE 6 km/h
Temperatura: 15°C
Rocío: 14°C
Humedad: 94%
Barómetro: 1019 hPa
Clouds: Muy nuboso
Visibility: 10 km
Cloud details: Few Clouds 122 m
Muy nuboso 7620 m
2020/02/28 19:50 LXGB 281950Z 04003KT 9999 FEW004 BKN250 15/14 Q1019 TEMPO 7000 HZ RMK BLU TEMPO WHT
 
LEMG - Malaga (civ/Mil), Spain
Distance from station: ESE 150km
Actualización: 28/02/2020 21:00
Few Clouds
Few Clouds
 Viento del E
Viento: E 7 km/h
Temperatura: 14°C
Rocío: 12°C
Humedad: 88%
Barómetro: 1019 hPa
Clouds: Few Clouds
Visibility: 10 km
Cloud details: Few Clouds 762 m
2020/02/28 20:00 LEMG 282000Z 08004KT 9999 FEW025 14/12 Q1019 NOSIG
GMTT - Tangier/Boukhalf, Morocco
Distance from station: S 169km
Actualización: 28/02/2020 21:00
Despejado
Despejado
 Viento del varies
Viento: varies 2 km/h
Temperatura: 13°C
Rocío: 10°C
Humedad: 82%
Barómetro: 1019 hPa
Resumen: Despejado
Visibility: greater than 10 km
2020/02/28 20:00 GMTT 282000Z VRB01KT CAVOK 13/10 Q1019 NOSIG
LPFR - Faro, Portugal
Distance from station: O 172km
Actualización: 28/02/2020 21:00
Despejado
Despejado
 Viento del ONO
Viento: ONO 7 km/h
Temperatura: 15°C
Rocío: 12°C
Humedad: 82%
Barómetro: 1019 hPa
Resumen: Despejado
Visibility: greater than 10 km
2020/02/28 20:00 LPFR 282000Z 29004KT CAVOK 15/12 Q1019
 
LPBJ - Beja (por/Ger-Af, Portugal
Distance from station: ONO 192km
Actualización: 28/02/2020 21:00
Despejado
Despejado
 Viento del O
Viento: O 17 km/h
Temperatura: 13°C
Rocío: 5°C
Humedad: 59%
Barómetro: 1018 hPa
Resumen: Despejado
Visibility: greater than 10 km
2020/02/28 20:00 LPBJ 282000Z 28009KT CAVOK 13/05 Q1018
LEBZ - Talavera Ab/Bada, Spain
Distance from station: NNO 194km
Actualización: 28/02/2020 21:00
Parcialmente nuboso
Parcialmente nuboso
 Viento del SSO
Viento: SSO 11 km/h
Temperatura: 16°C
Rocío: 7°C
Humedad: 55%
Barómetro: 1017 hPa
Clouds: Parcialmente nuboso
Visibility: 8 km
2020/02/28 20:00 LEBZ 282000Z 21006KT 8000 NSC 16/07 Q1017
LEMD - Madrid/Barajas, Spain
Distance from station: NE 415km
Actualización: 28/02/2020 21:00
Despejado
Despejado
 Viento del S
Viento: S 7 km/h
Temperatura: 14°C
Rocío: 2°C
Humedad: 44%
Barómetro: 1016 hPa
Resumen: Despejado
Visibility: greater than 10 km
2020/02/28 20:00 LEMD 282000Z 18004KT 160V230 CAVOK 14/02 Q1016 NOSIG